Bookmark and Share
Track history (hours):
 

Crane Gaia

Last reported at 2014-Apr-07 09:26 UTC. Time now 2014-Apr-18 03:13 UTC.
Position N 34°52' E 139°19'.
Warning: this ship's position is 10 days out of date.

Length 115 m; draft 5.8 m.

Type: Tanker. MMSI: 352461000.

NotesDate/timePositionNaut miles runAvg speedWind from/ knotsBaromVisibWave heightAir tempDewpointWater temp
2014-Apr-07 09:26N 34°52' E 139°19'1113.0
2014-Apr-07 08:34N 34°59' E 139°30'1312.7
2014-Apr-07 07:33N 35°06' E 139°43'1212.3
2014-Apr-07 06:34N 35°18' E 139°44'1010.2
2014-Apr-07 05:33N 35°28' E 139°48'4 3.3
2014-Apr-07 04:28N 35°31' E 139°46'0 0.0
2014-Apr-07 03:28N 35°31' E 139°46'0 0.1
2014-Apr-07 02:31N 35°31' E 139°46'0 0.0
2014-Apr-07 01:31N 35°31' E 139°46'0 0.0
2014-Apr-07 00:31N 35°31' E 139°46'0 0.0
2014-Apr-06 23:31N 35°31' E 139°46'1 0.6
2014-Apr-06 22:33N 35°30' E 139°46'3 3.2
2014-Apr-06 21:33N 35°28' E 139°44'0 0.1
2014-Apr-06 20:33N 35°28' E 139°44'0 0.0
2014-Apr-06 19:33N 35°28' E 139°44'0 0.0
2014-Apr-06 18:33N 35°28' E 139°44'0 0.0
2014-Apr-06 17:33N 35°28' E 139°44'0 0.0
2014-Apr-06 16:33N 35°28' E 139°44'0 0.0
2014-Apr-06 15:33N 35°28' E 139°44'0 0.0
2014-Apr-06 14:33N 35°28' E 139°44'0 0.0
2014-Apr-06 13:32N 35°28' E 139°44'0 0.0
2014-Apr-06 12:33N 35°28' E 139°44'0 0.0
2014-Apr-06 11:33N 35°28' E 139°44'0 0.0
2014-Apr-06 10:33N 35°28' E 139°44'0 0.0
2014-Apr-06 09:29N 35°28' E 139°44'0 0.0
2014-Apr-06 08:32N 35°28' E 139°44'0 0.1
2014-Apr-06 07:33N 35°28' E 139°44'5 5.1
2014-Apr-06 06:34N 35°23' E 139°46'1212.3
2014-Apr-06 05:33N 35°11' E 139°47'1313.1
2014-Apr-06 04:33N 35°01' E 139°36'23711.9
2014-Apr-05 08:33N 34°00' E 134°58'1515.2
2014-Apr-05 07:34N 34°15' E 134°58'1514.7
2014-Apr-05 06:33N 34°28' E 135°08'1413.9
2014-Apr-05 05:34N 34°39' E 135°18'1 0.7
2014-Apr-05 04:24N 34°40' E 135°18'0 0.0
2014-Apr-05 03:30N 34°40' E 135°18'0 0.1
2014-Apr-05 02:30N 34°40' E 135°18'4 4.1
2014-Apr-05 01:33N 34°36' E 135°17'1413.6
2014-Apr-05 00:33N 34°25' E 135°06'1312.7
2014-Apr-04 23:33N 34°14' E 134°59'1413.6
2014-Apr-04 22:33N 34°00' E 134°59'  

Dump ship's entire track history

sailing weather and tide predictions

Crane Gaia — 3FXX2 — position and weather